首页
METAR-TAF:

METAR-TAF

机场 :

Duke Field, 佛罗里达州, 美国

纬度: 30-39N, 经度: 086-31W, 海拔: 59米

当前天气观测

该预报发布于37分钟前的10:56 UTC
风速3节,风向
温度 3°C
湿度 100%
气压 1020 hPa
能見度: 12.9公里
天空无云

METAR: KEGI 181056Z AUTO 35003KT 8SM CLR 03/03 A3013 RMK AO2 SLPNO T00260025 $

时间: 05:33 (11:33 UTC)

预报

该预报发布于1小时和32分钟前的10:01 UTC
预报有效从18日的 10点(UTC)到 19日的 16点(UTC)
风速6节,风向
能見度: 1600
少量云层高于25000英尺
轻雾
短暂存在
从 18日的 10点(UTC)到 18日的 14点(UTC)
能見度: 0800
成为
从 18日的 13点(UTC)到 18日的 14点(UTC)
风速6节,风向北转东北
能见度10公里或以上
少量云层高于25000英尺
成为
从 18日的 23点(UTC)到 18日的 24点(UTC)
风速6节,风向北转东北
能见度10公里或以上
散云层高于15000英尺
多云层高于25000英尺
成为
从 19日的 05点(UTC)到 19日的 06点(UTC)
风速6节,风向东北
能見度: 1814
多云层高于15000英尺
多云层高于25000英尺

TAF: KEGI 181001Z 1810/1916 36006KT 1600 BR FEW250 QNH3014INS TEMPO 1810/1814 0800 FG BECMG 1813/1814 02006KT 9999 NSW FEW250 QNH3012INS BECMG 1823/1824 02006KT 9999 SCT150 BKN250 QNH3010INS BECMG 1905/1906 05006KT 9999 BKN150 BKN250 QNH3009INS TX16/1821Z TN02/1811Z LAST NO AMDS AFT 1810 NEXT 1814

超过4000个机场的气象观测和天气预报(METAR&TAF报告)。

可查询的气象台以黄色和红色小点在地图上表示。

将鼠标移到小点上方,可查看气象台名称。

然后点击查看天气观测和预报。

如需切换地图:点击带黑十字的绿色按钮放大地图;点击带横线的绿色按钮缩小地图;或者点击绿色箭头查看邻近地区的地图。


METAR-TAF: